Time;durP1;ratioP1;P1;durP2;ratioP2;P2;SDS_P1;SDS_P2;PMS_P1;PMS_P2;Temp;Humidity;BMP_temperature;BMP_pressure;BME280_temperature;BME280_humidity;BME280_pressure;Samples;Min_cycle;Max_cycle;Signal;HPM_P1;HPM_P2
2021/09/28 00:02:24;;;;;;;;;;;;;;;22.44;58.14;101062.78;4987508;28;1935;-43
2021/09/28 00:04:52;;;;;;;;;;;;;;;22.43;58.39;101075.41;4988006;28;2299;-43
2021/09/28 00:07:18;;;;;;;;;;;;;;;22.38;58.57;101058.88;4991523;28;1101;-42
2021/09/28 00:09:45;;;;;;;;;;;;;;;22.38;58.36;101058.00;4986029;28;1838;-43
2021/09/28 00:12:12;;;;;;;;;;;;;;;22.39;58.33;101065.09;4985251;28;1705;-43
2021/09/28 00:14:38;;;;;;;;;;;;;;;;;;4987191;28;2112;-43
2021/09/28 00:17:05;;;;;;;;;;;;;;;22.40;58.61;101067.66;4994715;28;1875;-43
2021/09/28 00:19:31;;;;;;;;;;;;;;;22.38;58.74;101068.78;4986468;28;1810;-43
2021/09/28 00:21:59;;;;;;;;;;;;;;;22.40;58.40;101069.47;4986566;28;1086;-44
2021/09/28 00:24:25;;;;;;;;;;;;;;;22.41;58.42;101063.09;4985649;28;1692;-42
2021/09/28 00:26:52;;;;;;;;;;;;;;;22.38;58.30;101063.38;4987564;28;1678;-43
2021/09/28 00:29:18;;;;;;;;;;;;;;;22.38;58.38;101066.06;4987436;28;1606;-43
2021/09/28 00:31:45;;;;;;;;;;;;;;;22.40;58.29;101067.66;4987443;28;1929;-43
2021/09/28 00:34:11;;;;;;;;;;;;;;;22.38;58.38;101066.94;4987423;28;1951;-43
2021/09/28 00:36:38;;;;;;;;;;;;;;;22.37;58.30;101077.88;4989382;28;1267;-43
2021/09/28 00:39:06;;;;;;;;;;;;;;;22.39;58.48;101075.88;4988041;28;1489;-43
2021/09/28 00:41:32;;;;;;;;;;;;;;;22.42;58.41;101080.94;4987370;28;1536;-43
2021/09/28 00:43:58;;;;;;;;;;;;;;;22.40;58.56;101077.56;4987187;28;1677;-43
2021/09/28 00:46:25;;;;;;;;;;;;;;;22.36;58.23;101082.41;4987228;28;1683;-43
2021/09/28 00:48:52;;;;;;;;;;;;;;;22.38;58.35;101079.56;4984737;28;1564;-43
2021/09/28 00:51:19;;;;;;;;;;;;;;;22.38;58.43;101087.63;4988229;28;1038;-43
2021/09/28 00:53:46;;;;;;;;;;;;;;;22.37;58.27;101083.25;4990339;28;1974;-43
2021/09/28 00:56:16;;;;;;;;;;;;;;;22.39;58.48;101074.00;4986764;28;1485;-43
2021/09/28 00:58:43;;;;;;;;;;;;;;;22.37;58.15;101077.88;4986257;28;1599;-43
2021/09/28 01:01:10;;;;;;;;;;;;;;;22.37;58.20;101077.88;4985148;28;2073;-43
2021/09/28 01:03:36;;;;;;;;;;;;;;;22.39;58.57;101083.97;4984682;28;1516;-44
2021/09/28 01:06:03;;;;;;;;;;;;;;;22.36;58.50;101081.53;4988038;28;1063;-43
2021/09/28 01:08:30;;;;;;;;;;;;;;;22.37;58.52;101088.66;4992534;28;2560;-43
2021/09/28 01:10:57;;;;;;;;;;;;;;;22.38;58.54;101096.59;4985417;28;1749;-43
2021/09/28 01:13:25;;;;;;;;;;;;;;;22.38;58.44;101087.63;4984164;28;1906;-43
2021/09/28 01:16:05;;;;;;;;;;;;;;;22.36;58.58;101086.94;4987852;28;1051;-43
2021/09/28 01:18:33;;;;;;;;;;;;;;;22.40;58.41;101093.72;4986632;28;1832;-42
2021/09/28 01:21:01;;;;;;;;;;;;;;;22.40;58.30;101088.34;4986531;28;1538;-42
2021/09/28 01:23:28;;;;;;;;;;;;;;;22.37;58.71;101080.56;4988555;28;1556;-43
2021/09/28 01:25:54;;;;;;;;;;;;;;;22.35;58.49;101079.88;4984936;28;1562;-43
2021/09/28 01:28:21;;;;;;;;;;;;;;;22.36;58.75;101086.94;4984090;28;1606;-43
2021/09/28 01:30:47;;;;;;;;;;;;;;;22.36;58.47;101086.94;4984499;28;1550;-43
2021/09/28 01:33:15;;;;;;;;;;;;;;;22.37;58.63;101083.25;4985588;28;1949;-43
2021/09/28 01:35:41;;;;;;;;;;;;;;;22.39;58.44;101082.09;4985270;28;942;-43
2021/09/28 01:38:09;;;;;;;;;;;;;;;22.38;58.65;101083.13;4992737;28;1845;-43
2021/09/28 01:40:36;;;;;;;;;;;;;;;22.34;58.66;101076.34;4984209;28;1763;-43
2021/09/28 01:43:05;;;;;;;;;;;;;;;22.34;58.72;101083.53;4984891;28;1496;-44
2021/09/28 01:45:32;;;;;;;;;;;;;;;22.34;58.71;101084.41;4985265;28;1534;-43
2021/09/28 01:47:58;;;;;;;;;;;;;;;22.35;58.44;101101.41;4985013;28;998;-43
2021/09/28 01:50:25;;;;;;;;;;;;;;;22.36;58.51;101093.19;4983856;28;1883;-42
2021/09/28 01:52:51;;;;;;;;;;;;;;;22.33;58.44;101090.78;4993034;28;1982;-44
2021/09/28 01:55:19;;;;;;;;;;;;;;;22.31;58.42;101087.41;4984303;28;1966;-43
2021/09/28 01:57:45;;;;;;;;;;;;;;;22.35;58.66;101090.66;4982177;28;1640;-43
2021/09/28 02:02:47;;;;;;;;;;;;;;;22.32;58.50;101082.84;5051745;23;1938;-40
2021/09/28 02:05:13;;;;;;;;;;;;;;;22.35;58.30;101096.03;5041143;28;1764;-41
2021/09/28 02:07:40;;;;;;;;;;;;;;;22.32;58.46;101066.69;5050208;28;1596;-41
2021/09/28 02:10:07;;;;;;;;;;;;;;;22.37;58.66;101094.03;5042492;28;1728;-41
2021/09/28 02:12:35;;;;;;;;;;;;;;;22.37;58.52;101075.19;5044628;28;1071;-40
2021/09/28 02:15:01;;;;;;;;;;;;;;;22.32;58.42;101088.22;5040786;28;1972;-41
2021/09/28 02:17:28;;;;;;;;;;;;;;;22.32;58.39;101089.09;5049924;28;1818;-40
2021/09/28 02:19:54;;;;;;;;;;;;;;;22.33;58.75;101082.69;5044321;28;999;-40
2021/09/28 02:22:21;;;;;;;;;;;;;;;22.32;58.35;101089.09;5041162;28;1792;-40
2021/09/28 02:24:47;;;;;;;;;;;;;;;22.32;58.49;101090.94;5038820;28;2192;-40
2021/09/28 02:27:14;;;;;;;;;;;;;;;22.32;58.48;101090.94;5042750;28;1665;-40
2021/09/28 02:29:41;;;;;;;;;;;;;;;22.32;58.33;101088.22;5043415;28;1537;-40
2021/09/28 02:32:08;;;;;;;;;;;;;;;22.32;58.46;101088.22;5042924;28;1731;-41
2021/09/28 02:34:35;;;;;;;;;;;;;;;22.31;58.70;101084.69;5042504;28;1910;-40
2021/09/28 02:37:02;;;;;;;;;;;;;;;22.31;58.47;101084.69;5043867;28;1079;-40
2021/09/28 02:39:28;;;;;;;;;;;;;;;22.34;58.79;101088.94;5040911;28;2039;-42
2021/09/28 02:41:55;;;;;;;;;;;;;;;22.30;58.74;101088.38;5042392;28;2015;-40
2021/09/28 02:44:21;;;;;;;;;;;;;;;22.34;58.71;101083.53;5042353;28;1759;-40
2021/09/28 02:46:49;;;;;;;;;;;;;;;22.31;58.76;101073.94;5042665;28;1549;-41
2021/09/28 02:49:16;;;;;;;;;;;;;;;22.33;58.42;101087.25;5042856;28;1921;-40
2021/09/28 02:51:42;;;;;;;;;;;;;;;22.31;58.43;101086.56;5045364;28;1174;-40
2021/09/28 02:54:09;;;;;;;;;;;;;;;22.30;58.47;101082.16;5043025;28;2256;-40
2021/09/28 02:56:35;;;;;;;;;;;;;;;22.31;58.35;101078.47;5042431;28;1498;-40
2021/09/28 02:59:01;;;;;;;;;;;;;;;22.31;58.44;101081.16;5042063;28;2063;-40
2021/09/28 03:01:28;;;;;;;;;;;;;;;22.33;58.51;101088.09;5041771;28;1666;-41
2021/09/28 03:03:56;;;;;;;;;;;;;;;22.30;58.54;101068.69;5041055;28;1815;-40
2021/09/28 03:06:22;;;;;;;;;;;;;;;22.33;58.62;101089.94;5043544;28;1069;-40
2021/09/28 03:08:49;;;;;;;;;;;;;;;22.33;58.74;101095.34;5045865;28;1911;-40
2021/09/28 03:11:15;;;;;;;;;;;;;;;22.29;58.38;101100.16;5042545;28;1515;-41
2021/09/28 03:13:42;;;;;;;;;;;;;;;22.31;58.55;101106.25;5041316;28;1915;-40
2021/09/28 03:16:08;;;;;;;;;;;;;;;22.29;58.42;101092.09;5043499;28;1088;-40
2021/09/28 03:18:34;;;;;;;;;;;;;;;22.28;58.53;101089.53;5042347;28;1593;-41
2021/09/28 03:21:02;;;;;;;;;;;;;;;22.29;58.49;101088.56;5042058;28;1541;-41
2021/09/28 03:23:29;;;;;;;;;;;;;;;22.29;58.49;101091.25;5044273;28;2154;-40
2021/09/28 03:25:55;;;;;;;;;;;;;;;22.28;58.44;101094.94;5041130;28;1715;-40
2021/09/28 03:28:22;;;;;;;;;;;;;;;22.31;58.65;101097.34;5040277;28;1677;-40
2021/09/28 03:30:48;;;;;;;;;;;;;;;22.28;58.50;101093.06;5040055;28;1721;-40
2021/09/28 03:33:15;;;;;;;;;;;;;;;22.29;58.45;101102.03;5042200;28;1737;-42
2021/09/28 03:35:41;;;;;;;;;;;;;;;22.32;58.67;101099.00;5041153;28;2059;-40
2021/09/28 03:38:09;;;;;;;;;;;;;;;22.32;58.76;101093.63;5048953;28;1893;-41
2021/09/28 03:40:36;;;;;;;;;;;;;;;22.30;58.61;101095.63;5040225;28;1706;-40
2021/09/28 03:43:04;;;;;;;;;;;;;;;22.28;58.41;101084.16;5041519;28;1797;-40
2021/09/28 03:45:30;;;;;;;;;;;;;;;22.29;58.76;101083.16;5040833;28;1531;-40
2021/09/28 03:47:57;;;;;;;;;;;;;;;22.31;58.34;101103.56;5040625;28;1111;-44
2021/09/28 03:50:24;;;;;;;;;;;;;;;22.32;58.34;101093.63;5040292;28;1686;-41
2021/09/28 03:52:50;;;;;;;;;;;;;;;22.30;58.50;101088.38;5049248;28;1687;-40
2021/09/28 03:55:20;;;;;;;;;;;;;;;22.28;58.48;101094.94;5043069;28;1910;-40
2021/09/28 03:57:47;;;;;;;;;;;;;;;22.28;58.64;101084.16;5039638;28;1669;-41
2021/09/28 04:00:14;;;;;;;;;;;;;;;22.29;58.50;101081.31;5040689;28;1665;-40
2021/09/28 04:02:40;;;;;;;;;;;;;;;22.26;58.53;101084.28;5041580;28;2243;-40
2021/09/28 04:05:07;;;;;;;;;;;;;;;22.30;58.43;101087.53;5049518;28;1090;-40
2021/09/28 04:07:35;;;;;;;;;;;;;;;22.28;58.51;101087.69;5039666;28;1806;-40
2021/09/28 04:10:01;;;;;;;;;;;;;;;22.26;58.50;101073.50;5042908;28;1793;-40
2021/09/28 04:12:29;;;;;;;;;;;;;;;22.29;58.50;101080.47;5048261;28;1952;-40
2021/09/28 04:14:58;;;;;;;;;;;;;;;22.27;58.26;101077.91;5040949;28;1910;-40
2021/09/28 04:17:24;;;;;;;;;;;;;;;22.27;58.81;101082.47;5048271;28;1742;-41
2021/09/28 04:19:51;;;;;;;;;;;;;;;22.25;58.35;101079.91;5040298;28;1954;-41
2021/09/28 04:22:17;;;;;;;;;;;;;;;22.29;58.70;101088.56;5042624;28;1050;-41
2021/09/28 04:24:44;;;;;;;;;;;;;;;22.29;58.55;101083.16;5041157;28;1747;-40
2021/09/28 04:27:11;;;;;;;;;;;;;;;22.29;58.77;101085.84;5043175;28;1965;-40
2021/09/28 04:29:39;;;;;;;;;;;;;;;22.29;58.74;101092.09;5044680;28;2152;-40
2021/09/28 04:32:06;;;;;;;;;;;;;;;22.27;58.83;101079.78;5045017;28;1697;-41
2021/09/28 04:34:32;;;;;;;;;;;;;;;22.30;58.81;101087.53;5045674;28;1981;-40
2021/09/28 04:36:59;;;;;;;;;;;;;;;22.26;58.50;101096.91;5050286;28;1096;-40
2021/09/28 04:39:25;;;;;;;;;;;;;;;22.32;58.83;101101.72;5043357;28;1631;-40
2021/09/28 04:41:52;;;;;;;;;;;;;;;22.29;58.61;101102.03;5045346;28;1683;-40
2021/09/28 04:44:19;;;;;;;;;;;;;;;22.27;58.52;101112.94;5044553;28;1681;-40
2021/09/28 04:46:46;;;;;;;;;;;;;;;22.27;58.50;101096.78;5044852;28;1472;-40
2021/09/28 04:49:13;;;;;;;;;;;;;;;22.30;58.46;101111.78;5045837;28;1661;-40
2021/09/28 04:51:39;;;;;;;;;;;;;;;22.31;58.61;101100.88;5048138;28;2072;-40
2021/09/28 04:54:07;;;;;;;;;;;;;;;22.27;58.31;101104.03;5046146;28;1972;-40
2021/09/28 04:56:33;;;;;;;;;;;;;;;22.31;58.60;101094.63;5045337;28;1504;-40
2021/09/28 04:59:00;;;;;;;;;;;;;;;22.28;58.29;101116.47;5045350;28;1550;-40
2021/09/28 05:01:26;;;;;;;;;;;;;;;22.28;59.06;101094.94;5044511;28;1644;-40
2021/09/28 05:03:54;;;;;;;;;;;;;;;22.26;58.52;101092.38;5044040;28;1892;-40
2021/09/28 05:06:20;;;;;;;;;;;;;;;22.26;58.57;101094.22;5046325;28;1089;-40
2021/09/28 05:08:47;;;;;;;;;;;;;;;22.24;58.54;101088.97;5048793;28;1716;-41
2021/09/28 05:11:14;;;;;;;;;;;;;;;22.27;58.75;101094.09;5045330;28;1658;-41
2021/09/28 05:13:40;;;;;;;;;;;;;;;22.30;58.46;101109.09;5044700;28;1706;-40
2021/09/28 05:16:07;;;;;;;;;;;;;;;22.27;58.50;101099.47;5046203;28;1981;-40
2021/09/28 05:18:34;;;;;;;;;;;;;;;22.29;58.62;101102.88;5045233;28;1800;-40
2021/09/28 05:21:02;;;;;;;;;;;;;;;22.32;58.75;101107.09;5045325;28;2375;-40
2021/09/28 05:23:28;;;;;;;;;;;;;;;22.28;58.56;101092.22;5047450;28;2252;-41
2021/09/28 05:25:55;;;;;;;;;;;;;;;22.27;58.71;101099.47;5043593;28;1600;-40
2021/09/28 05:28:21;;;;;;;;;;;;;;;22.31;58.69;101105.41;5042834;28;1735;-40
2021/09/28 05:30:49;;;;;;;;;;;;;;;22.26;58.34;101096.91;5043317;28;1561;-41
2021/09/28 05:33:15;;;;;;;;;;;;;;;22.29;58.72;101097.47;5044673;28;1554;-41
2021/09/28 05:35:42;;;;;;;;;;;;;;;22.27;58.49;101093.25;5043404;28;1978;-40
2021/09/28 05:38:10;;;;;;;;;;;;;;;22.30;58.78;101087.53;5051250;28;1720;-40
2021/09/28 05:40:36;;;;;;;;;;;;;;;22.26;58.60;101084.28;5042124;28;1549;-40
2021/09/28 05:43:03;;;;;;;;;;;;;;;22.29;58.88;101075.09;5043537;28;1608;-40
2021/09/28 05:45:29;;;;;;;;;;;;;;;22.27;58.60;101085.16;5043677;28;1660;-40
2021/09/28 05:47:56;;;;;;;;;;;;;;;22.30;58.49;101084.84;5043458;28;1006;-42
2021/09/28 05:50:22;;;;;;;;;;;;;;;22.30;58.28;101090.22;5042458;28;1610;-40
2021/09/28 05:52:49;;;;;;;;;;;;;;;22.35;58.50;101098.72;5051781;28;1508;-41
2021/09/28 05:55:17;;;;;;;;;;;;;;;22.32;58.56;101070.25;5043780;28;1975;-40
2021/09/28 05:57:43;;;;;;;;;;;;;;;22.33;58.42;101087.25;5042746;28;1518;-41
2021/09/28 06:00:11;;;;;;;;;;;;;;;22.40;58.41;101093.72;5042600;28;1107;-40
2021/09/28 06:02:37;;;;;;;;;;;;;;;22.40;58.29;101101.81;5041688;28;1612;-41
2021/09/28 06:05:04;;;;;;;;;;;;;;;22.39;58.22;101098.28;5042943;28;1860;-41
2021/09/28 06:07:30;;;;;;;;;;;;;;;22.37;58.55;101091.34;5052670;28;1501;-41
2021/09/28 06:09:57;;;;;;;;;;;;;;;22.39;58.26;101087.50;5042976;28;1101;-40
2021/09/28 06:12:25;;;;;;;;;;;;;;;22.39;58.00;101110.91;5041564;28;1754;-40
2021/09/28 06:14:51;;;;;;;;;;;;;;;22.42;58.30;101114.16;5041870;28;1982;-41
2021/09/28 06:17:17;;;;;;;;;;;;;;;22.39;58.31;101100.13;5050706;28;2047;-40
2021/09/28 06:19:44;;;;;;;;;;;;;;;22.38;57.76;101101.97;5043184;28;1511;-43
2021/09/28 06:22:11;;;;;;;;;;;;;;;22.40;58.16;101105.38;5043737;28;1002;-40
2021/09/28 06:24:37;;;;;;;;;;;;;;;22.42;58.20;101122.25;5041686;28;2328;-40
2021/09/28 06:27:05;;;;;;;;;;;;;;;22.43;58.10;101118.53;5042393;28;1644;-40
2021/09/28 06:29:33;;;;;;;;;;;;;;;22.46;58.41;101111.13;5043485;28;1673;-40
2021/09/28 06:32:00;;;;;;;;;;;;;;;22.43;58.04;101121.22;5043801;28;1790;-39
2021/09/28 06:34:27;;;;;;;;;;;;;;;22.45;58.21;101113.00;5043167;28;1781;-42
2021/09/28 06:36:53;;;;;;;;;;;;;;;22.48;58.02;101119.91;5048179;28;1969;-40
2021/09/28 06:39:20;;;;;;;;;;;;;;;22.45;58.02;101118.38;5042937;28;2243;-40
2021/09/28 06:41:47;;;;;;;;;;;;;;;22.49;58.03;101125.16;5043383;28;1967;-40
2021/09/28 06:44:13;;;;;;;;;;;;;;;22.47;58.02;101126.31;5043338;28;2064;-40
2021/09/28 06:46:41;;;;;;;;;;;;;;;22.49;58.49;101124.34;5043013;28;1519;-40
2021/09/28 06:49:07;;;;;;;;;;;;;;;22.45;57.94;101134.56;5043436;28;1962;-41
2021/09/28 06:51:34;;;;;;;;;;;;;;;22.48;58.09;101130.69;5044869;28;1178;-40
2021/09/28 06:54:00;;;;;;;;;;;;;;;22.49;57.95;101127.88;5045273;28;1694;-40
2021/09/28 06:56:28;;;;;;;;;;;;;;;22.50;58.06;101132.28;5042860;28;1967;-40
2021/09/28 06:58:54;;;;;;;;;;;;;;;22.50;58.13;101131.41;5043197;28;1718;-40
2021/09/28 07:01:21;;;;;;;;;;;;;;;22.57;57.76;101140.59;5041918;28;1530;-40
2021/09/28 07:03:48;;;;;;;;;;;;;;;22.52;58.04;101132.97;5040752;28;1745;-40
2021/09/28 07:06:15;;;;;;;;;;;;;;;22.53;58.02;101139.19;5044170;28;999;-40
2021/09/28 07:08:41;;;;;;;;;;;;;;;22.52;58.04;101138.34;5047722;28;1916;-40
2021/09/28 07:11:08;;;;;;;;;;;;;;;22.56;58.02;101142.44;5043141;28;1840;-40
2021/09/28 07:13:34;;;;;;;;;;;;;;;22.51;58.30;101133.94;5041542;28;1799;-40
2021/09/28 07:16:01;;;;;;;;;;;;;;;22.49;58.22;101146.72;5043886;28;1975;-40
2021/09/28 07:18:27;;;;;;;;;;;;;;;22.51;58.16;101136.66;5043670;28;1632;-40
2021/09/28 07:20:55;;;;;;;;;;;;;;;22.49;58.10;101141.34;5042909;28;1480;-40
2021/09/28 07:23:23;;;;;;;;;;;;;;;22.53;58.27;101150.81;5045054;28;1740;-40
2021/09/28 07:25:49;;;;;;;;;;;;;;;22.52;58.11;101140.19;5041875;28;1964;-40
2021/09/28 07:28:16;;;;;;;;;;;;;;;22.54;58.15;101151.66;5041531;28;2249;-40
2021/09/28 07:30:42;;;;;;;;;;;;;;;22.55;58.04;101165.00;5042672;28;2056;-40
2021/09/28 07:33:09;;;;;;;;;;;;;;;22.59;58.26;101163.69;5042545;28;1725;-43
2021/09/28 07:35:35;;;;;;;;;;;;;;;22.54;58.03;101155.22;5042105;28;1981;-40
2021/09/28 07:38:03;;;;;;;;;;;;;;;22.54;57.98;101149.84;5050488;28;1832;-40
2021/09/28 07:40:30;;;;;;;;;;;;;;;22.54;58.18;101154.34;5041659;28;1651;-40
2021/09/28 07:42:56;;;;;;;;;;;;;;;22.56;58.13;101174.78;5043222;28;1516;-40
2021/09/28 07:45:23;;;;;;;;;;;;;;;22.52;58.16;101167.13;5041730;28;2668;-41
2021/09/28 07:47:50;;;;;;;;;;;;;;;22.54;58.10;101159.75;5042177;28;1082;-41
2021/09/28 07:50:18;;;;;;;;;;;;;;;22.55;58.32;101164.16;5041441;28;2315;-40
2021/09/28 07:52:44;;;;;;;;;;;;;;;22.53;57.98;101163.47;5051141;28;1927;-40
2021/09/28 07:55:12;;;;;;;;;;;;;;;22.53;58.19;101156.22;5042083;28;1906;-40
2021/09/28 07:57:39;;;;;;;;;;;;;;;22.56;58.10;101173.91;5042120;28;1122;-40
2021/09/28 08:00:06;;;;;;;;;;;;;;;22.56;58.13;101161.31;5043535;28;1716;-40
2021/09/28 08:02:35;;;;;;;;;;;;;;;22.57;58.24;101163.00;5044439;28;1718;-40
2021/09/28 08:05:01;;;;;;;;;;;;;;;22.60;57.95;101169.94;5045728;28;1733;-40
2021/09/28 08:07:28;;;;;;;;;;;;;;;22.57;58.04;101156.78;5050663;28;1822;-40
2021/09/28 08:09:54;;;;;;;;;;;;;;;22.58;57.98;101156.63;5047698;28;1755;-41
2021/09/28 08:12:22;;;;;;;;;;;;;;;22.57;57.88;101168.38;5045633;28;1705;-41
2021/09/28 08:14:48;;;;;;;;;;;;;;;22.56;58.04;101160.44;5044992;28;1757;-41
2021/09/28 08:17:15;;;;;;;;;;;;;;;22.55;58.32;101159.59;5045620;28;2407;-40
2021/09/28 08:19:43;;;;;;;;;;;;;;;22.54;57.99;101144.44;5046383;28;1734;-40
2021/09/28 08:22:11;;;;;;;;;;;;;;;22.58;58.06;101163.84;5045499;28;1067;-40
2021/09/28 08:24:42;;;;;;;;;;;;;;;22.60;58.12;101168.09;5044329;28;1851;-41
2021/09/28 08:30:05;;;;;;;;;;;;;;;22.56;58.28;101160.44;5012300;28;1591;-41
2021/09/28 08:32:32;;;;;;;;;;;;;;;22.57;58.31;101159.47;5044348;28;1912;-41
2021/09/28 08:34:59;;;;;;;;;;;;;;;22.60;58.14;101161.84;5045956;28;1951;-40
2021/09/28 08:37:26;;;;;;;;;;;;;;;22.59;58.20;101152.91;5054478;28;2065;-42
2021/09/28 08:39:53;;;;;;;;;;;;;;;22.60;57.98;101138.47;5045182;28;1161;-40
2021/09/28 08:42:20;;;;;;;;;;;;;;;22.59;58.47;101152.91;5043888;28;1957;-40
2021/09/28 08:44:46;;;;;;;;;;;;;;;22.62;58.10;101171.50;5044392;28;1569;-40
2021/09/28 08:47:14;;;;;;;;;;;;;;;22.62;57.99;101140.97;5046267;28;1566;-40
2021/09/28 08:49:41;;;;;;;;;;;;;;;22.59;58.20;101150.22;5045953;28;1771;-41
2021/09/28 08:52:10;;;;;;;;;;;;;;;22.62;58.15;101154.44;5052238;28;1084;-40
2021/09/28 08:54:37;;;;;;;;;;;;;;;22.59;58.12;101155.59;5043960;28;1840;-40
2021/09/28 08:57:03;;;;;;;;;;;;;;;22.58;58.14;101148.53;5044321;28;1906;-40
2021/09/28 08:59:50;;;;;;;;;;;;;;;22.57;57.96;101144.13;5045975;28;1718;-40
2021/09/28 09:02:18;;;;;;;;;;;;;;;22.59;58.26;101161.00;5041304;28;1853;-41
2021/09/28 09:05:01;;;;;;;;;;;;;;;22.57;57.99;101154.91;5045426;28;1730;-41
2021/09/28 09:07:27;;;;;;;;;;;;;;;22.60;58.32;101142.97;5055148;28;2010;-41
2021/09/28 09:09:54;;;;;;;;;;;;;;;22.61;58.13;101142.00;5044127;28;1094;-40
2021/09/28 09:12:31;;;;;;;;;;;;;;;22.59;58.06;101157.47;5043896;28;1850;-40
2021/09/28 09:15:16;;;;;;;;;;;;;;;22.58;58.12;101162.00;5043229;28;1622;-40
2021/09/28 09:17:44;;;;;;;;;;;;;;;22.59;58.28;101152.91;5052466;28;1833;-40
2021/09/28 09:20:32;;;;;;;;;;;;;;;22.57;58.09;101154.91;5043595;28;1506;-41
2021/09/28 09:23:21;;;;;;;;;;;;;;;22.56;58.12;101153.22;5043740;28;2112;-40
2021/09/28 09:25:49;;;;;;;;;;;;;;;22.56;58.23;101161.31;5043233;28;2046;-40
2021/09/28 09:28:28;;;;;;;;;;;;;;;22.62;58.32;101154.44;5043583;28;1636;-40
2021/09/28 09:31:05;;;;;;;;;;;;;;;22.57;58.20;101157.59;5043177;28;2528;-40
2021/09/28 09:33:33;;;;;;;;;;;;;;;22.56;58.31;101153.22;5043361;28;1733;-40
2021/09/28 09:36:00;;;;;;;;;;;;;;;22.56;58.19;101158.63;5044092;28;1975;-40
2021/09/28 09:38:27;;;;;;;;;;;;;;;22.58;58.09;101172.78;5040968;28;1775;-40
2021/09/28 09:40:53;;;;;;;;;;;;;;;22.56;58.16;101166.72;5043656;28;1651;-41
2021/09/28 09:43:29;;;;;;;;;;;;;;;22.60;58.25;101176.19;5042751;28;1652;-41
2021/09/28 09:46:06;;;;;;;;;;;;;;;22.56;58.28;101160.44;5042902;28;1720;-40
2021/09/28 09:48:34;;;;;;;;;;;;;;;22.55;58.37;101159.59;5042751;28;1704;-40
2021/09/28 09:51:05;;;;;;;;;;;;;;;22.58;58.33;101197.06;5043905;28;1195;-40
2021/09/28 09:53:31;;;;;;;;;;;;;;;22.55;58.10;101173.09;5040729;28;2317;-40
2021/09/28 09:55:59;;;;;;;;;;;;;;;22.58;58.02;101183.59;5043737;28;1906;-40
2021/09/28 09:58:25;;;;;;;;;;;;;;;22.53;58.32;101152.69;5042615;28;1604;-40
2021/09/28 10:00:54;;;;;;;;;;;;;;;22.58;58.49;101198.88;5042639;28;1739;-41
2021/09/28 10:03:20;;;;;;;;;;;;;;;22.54;58.32;101175.91;5044541;28;1886;-41
2021/09/28 10:05:48;;;;;;;;;;;;;;;22.54;58.24;101192.97;5044019;28;1163;-40
2021/09/28 10:08:15;;;;;;;;;;;;;;;22.55;58.09;101191.09;5051050;28;1641;-40
2021/09/28 10:10:43;;;;;;;;;;;;;;;22.55;58.75;101201.88;5042565;28;1579;-40
2021/09/28 10:13:41;;;;;;;;;;;;;;;22.59;57.77;101173.63;5046466;28;1099;-40
2021/09/28 10:16:26;;;;;;;;;;;;;;;22.53;58.49;101202.03;5043493;28;1906;-40
2021/09/28 10:18:53;;;;;;;;;;;;;;;22.56;58.14;101208.97;5043058;28;1684;-40
2021/09/28 10:24:30;;;;;;;;;;;;;;;22.58;58.21;101210.53;5121789;27;1520;-41
2021/09/28 10:27:15;;;;;;;;;;;;;;;22.54;58.13;101192.97;5106041;28;1532;-41
2021/09/28 10:29:43;;;;;;;;;;;;;;;22.54;58.31;101209.13;5107112;28;1794;-41
2021/09/28 10:32:24;;;;;;;;;;;;;;;22.53;58.74;101204.72;5110335;28;1633;-41
2021/09/28 10:35:11;;;;;;;;;;;;;;;22.53;58.50;101207.41;5111150;27;1867;-41
2021/09/28 10:37:52;;;;;;;;;;;;;;;22.54;58.36;101205.56;5092037;28;1655;-42
2021/09/28 10:40:37;;;;;;;;;;;;;;;22.53;58.31;101210.13;5105923;28;1555;-41
2021/09/28 10:43:06;;;;;;;;;;;;;;;22.52;58.43;101200.34;5106283;28;1975;-41
2021/09/28 10:45:45;;;;;;;;;;;;;;;22.55;58.37;101205.44;5110372;28;2121;-41
2021/09/28 10:48:31;;;;;;;;;;;;;;;22.52;58.21;101205.75;5108930;28;1906;-41
2021/09/28 10:51:04;;;;;;;;;;;;;;;22.55;58.26;101210.81;5110623;28;1142;-41
2021/09/28 10:53:35;;;;;;;;;;;;;;;22.53;58.19;101207.41;5110045;28;1796;-41
2021/09/28 10:56:04;;;;;;;;;;;;;;;22.51;58.40;101198.63;5109935;28;1526;-41
2021/09/28 10:58:49;;;;;;;;;;;;;;;22.54;58.32;101209.13;5110288;28;1762;-41
2021/09/28 11:01:16;;;;;;;;;;;;;;;22.53;58.25;101215.50;5101510;28;1991;-42
2021/09/28 11:03:51;;;;;;;;;;;;;;;22.50;58.93;101202.34;5109262;28;1968;-41
2021/09/28 11:06:22;;;;;;;;;;;;;;;22.53;58.24;101207.41;5111021;28;1079;-42
2021/09/28 11:08:54;;;;;;;;;;;;;;;22.52;58.26;101196.78;5109503;28;1978;-42
2021/09/28 11:11:22;;;;;;;;;;;;;;;22.50;58.27;101202.34;5109211;28;1535;-41
2021/09/28 11:13:50;;;;;;;;;;;;;;;22.52;58.25;101205.75;5109551;28;1701;-41
2021/09/28 11:16:20;;;;;;;;;;;;;;;22.49;58.48;101189.84;5110690;28;1070;-41
2021/09/28 11:18:53;;;;;;;;;;;;;;;22.51;58.48;101204.03;5109127;28;1576;-41
2021/09/28 11:21:20;;;;;;;;;;;;;;;22.48;58.36;101190.84;5109141;28;1862;-41
2021/09/28 11:23:50;;;;;;;;;;;;;;;22.50;58.28;101193.38;5108727;28;1987;-41
2021/09/28 11:26:17;;;;;;;;;;;;;;;22.50;58.48;101194.25;5109339;28;1683;-41
2021/09/28 11:28:47;;;;;;;;;;;;;;;22.52;58.40;101200.34;5109779;28;1745;-41
2021/09/28 11:31:15;;;;;;;;;;;;;;;22.53;58.27;101176.94;5100344;28;1689;-41
2021/09/28 11:33:43;;;;;;;;;;;;;;;22.49;58.30;101195.25;5106106;28;1662;-41
2021/09/28 11:36:11;;;;;;;;;;;;;;;22.50;58.49;101188.88;5096743;28;1102;-41
2021/09/28 11:38:39;;;;;;;;;;;;;;;22.49;58.43;101189.84;5095573;28;1947;-41
2021/09/28 11:41:08;;;;;;;;;;;;;;;22.47;58.45;101197.22;5095806;28;1927;-43
2021/09/28 11:43:36;;;;;;;;;;;;;;;22.50;58.39;101186.16;5095030;28;1975;-41
2021/09/28 11:46:03;;;;;;;;;;;;;;;22.53;58.10;101196.63;5095400;28;1674;-41
2021/09/28 11:48:37;;;;;;;;;;;;;;;22.56;58.36;101207.13;5095197;28;1678;-41
2021/09/28 11:51:06;;;;;;;;;;;;;;;22.50;58.19;101205.03;5092342;28;1162;-42
2021/09/28 11:53:37;;;;;;;;;;;;;;;22.57;58.28;101198.03;5094835;28;1955;-41
2021/09/28 11:56:03;;;;;;;;;;;;;;;22.54;58.24;101202.88;5095245;28;2243;-41
2021/09/28 11:58:32;;;;;;;;;;;;;;;22.54;58.23;101201.06;5094909;28;1747;-41
2021/09/28 12:00:59;;;;;;;;;;;;;;;22.56;58.24;101201.75;5095214;28;1574;-42
2021/09/28 12:03:26;;;;;;;;;;;;;;;22.58;58.41;101206.97;5094553;28;1902;-41
2021/09/28 12:06:03;;;;;;;;;;;;;;;22.54;58.19;101200.19;5096068;28;1065;-41
2021/09/28 12:08:33;;;;;;;;;;;;;;;22.52;58.11;101189.56;5094975;28;1913;-41
2021/09/28 12:11:01;;;;;;;;;;;;;;;22.57;57.97;101205.28;5094945;28;1763;-41
2021/09/28 12:13:29;;;;;;;;;;;;;;;22.55;58.32;101191.94;5094693;28;1668;-41
2021/09/28 12:15:59;;;;;;;;;;;;;;;22.55;58.11;101191.94;5095647;28;1145;-41
2021/09/28 12:18:25;;;;;;;;;;;;;;;22.55;58.25;101191.09;5094773;28;1516;-41
2021/09/28 12:21:07;;;;;;;;;;;;;;;22.54;57.74;101184.88;5094373;28;1488;-41
2021/09/28 12:23:33;;;;;;;;;;;;;;;22.56;58.53;101182.88;5094174;28;1993;-41
2021/09/28 12:26:00;;;;;;;;;;;;;;;22.58;58.42;101193.50;5094667;28;1947;-41
2021/09/28 12:28:26;;;;;;;;;;;;;;;22.58;58.43;101209.66;5094223;28;1614;-41
2021/09/28 12:30:54;;;;;;;;;;;;;;;22.56;58.26;101212.53;5094354;28;1520;-41
2021/09/28 12:33:21;;;;;;;;;;;;;;;22.54;58.36;101198.34;5090368;28;2169;-42
2021/09/28 12:35:51;;;;;;;;;;;;;;;22.55;58.08;101189.25;5095499;28;1058;-41
2021/09/28 12:38:19;;;;;;;;;;;;;;;22.56;58.01;101207.13;5094438;28;1926;-41
2021/09/28 12:40:46;;;;;;;;;;;;;;;22.56;58.20;101207.13;5094193;28;1672;-41
2021/09/28 12:43:15;;;;;;;;;;;;;;;22.56;58.09;101180.19;5094249;28;1982;-41
2021/09/28 12:45:43;;;;;;;;;;;;;;;22.54;58.57;101198.34;5089268;28;1716;-42
2021/09/28 12:48:09;;;;;;;;;;;;;;;22.56;58.34;101207.13;5094223;28;1821;-43
2021/09/28 12:50:37;;;;;;;;;;;;;;;22.56;58.20;101198.19;5094906;28;1074;-41
2021/09/28 12:53:04;;;;;;;;;;;;;;;22.55;58.30;101204.59;5094124;28;1719;-41
2021/09/28 12:55:36;;;;;;;;;;;;;;;22.54;58.28;101192.97;5093715;28;1560;-41
2021/09/28 12:58:03;;;;;;;;;;;;;;;22.51;58.39;101166.28;5090136;28;1679;-41
2021/09/28 13:00:29;;;;;;;;;;;;;;;22.54;58.42;101192.97;5093579;28;1554;-43
2021/09/28 13:02:56;;;;;;;;;;;;;;;22.52;57.76;101189.56;5093907;28;1988;-41